Morris, Oklahoma
Current Conditions -  °F | °C
As of 9:15 PM on Thursday 18 Dec 2014 (Local Time) from KOKM Reporting Station
Haze Haze  
Wind Chill: 40°   Ceiling: 1400
Heat Index: 40°   Visibility: 5mi
Dew Point: 39°   Wind: 0mph
Humidity: 96%   Direction: NA
Pressure: 30.23"   Gusts: NA
Location:  35.61°N, 95.86°W
Report Text: KOKM 190315Z AUTO 00000KT 5SM BR SCT008 OVC014 05/04 A3023 RMK AO2 T00460040
Loading
Personal Weather Stations






























Interactive Weather Map New forecast layout! Learn more

10-Day Weather Forecast

Advertisements
Track Severe Weather on mobile